Terminal Aerodrome Forecast
Issued by NWS Twin Cities, MN

Home | Current Version | Previous Version | Text Only | Print | Product List | Glossary On
Versions: 1 2 3 4 5 6 7 8 9 10 11 12 13 14 15 16
000
FTUS43 KMPX 020309 AAA
TAFSTC
TAF AMD
KSTC 020309Z 0203/0224 29013KT P6SM BKN030
      TEMPO 0203/0205 SCT030
     FM020500 29009KT P6SM FEW250
     FM021500 17005KT P6SM FEW050 SCT250
     FM022100 16010G18KT P6SM FEW070 OVC100=

USA.gov is the U.S. government's official web portal to all federal, state and local government web resources and services.